| time (UTC) | temp C | wind direction | speed KPH | gust KPH | rain 1hr cm | rain 24hr cm | rain mn cm | humidity % | barometer mb |
| 20260902212320 | 33 | 190 | 3.2 | 12.9 | 0.00 | 0.00 | 0.00 | 59 | 1017.4 |
| 20260902211816 | 33 | 254 | 8.0 | 14.5 | 0.00 | 0.00 | 0.00 | 58 | 1017.3 |
| 20260902211311 | 34 | 209 | 4.8 | 14.5 | 0.00 | 0.00 | 0.00 | 60 | 1017.4 |
| 20260902210806 | 34 | 255 | 8.0 | 12.9 | 0.00 | 0.00 | 0.00 | 59 | 1017.5 |
| 20260902210301 | 34 | 210 | 4.8 | 9.7 | 0.00 | 0.00 | 0.00 | 58 | 1017.3 |
| 20260902205759 | 34 | 226 | 4.8 | 16.1 | 0.00 | 0.00 | 0.00 | 59 | 1017.5 |
| 20260902205254 | 34 | 202 | 3.2 | 11.3 | 0.00 | 0.00 | 0.00 | 60 | 1017.6 |
| 20260902204749 | 34 | 252 | 6.4 | 17.7 | 0.00 | 0.00 | 0.00 | 60 | 1017.6 |
| 20260902204244 | 34 | 271 | 4.8 | 11.3 | 0.00 | 0.00 | 0.00 | 60 | 1017.5 |
| 20260902203744 | 34 | 245 | 4.8 | 9.7 | 0.00 | 0.00 | 0.00 | 59 | 1017.7 |
| 20260902203239 | 33 | 208 | 3.2 | 9.7 | 0.00 | 0.00 | 0.00 | 58 | 1017.8 |
| 20260902202734 | 34 | 274 | 9.7 | 12.9 | 0.00 | 0.00 | 0.00 | 59 | 1017.6 |
| 20260902202231 | 34 | 251 | 4.8 | 12.9 | 0.00 | 0.00 | 0.00 | 59 | 1017.8 |
| 20260902201727 | 34 | 208 | 1.6 | 9.7 | 0.00 | 0.00 | 0.00 | 59 | 1017.8 |
| 20260902201226 | 34 | 261 | 6.4 | 14.5 | 0.00 | 0.00 | 0.00 | 58 | 1017.8 |
| 20260902200721 | 34 | 259 | 4.8 | 9.7 | 0.00 | 0.00 | 0.00 | 59 | 1017.6 |
| 20260902200217 | 33 | 250 | 3.2 | 11.3 | 0.00 | 0.00 | 0.00 | 59 | 1017.9 |
| 20260902195712 | 35 | 210 | 6.4 | 8.0 | 0.00 | 0.00 | 0.00 | 59 | 1017.9 |
| 20260902195211 | 35 | 203 | 3.2 | 8.0 | 0.00 | 0.00 | 0.00 | 59 | 1017.8 |
| 20260902194711 | 34 | 190 | 3.2 | 3.2 | 0.00 | 0.00 | 0.00 | 60 | 1017.9 |
| 20260902194206 | 34 | 208 | 3.2 | 11.3 | 0.00 | 0.00 | 0.00 | 58 | 1018.0 |
| 20260902193702 | 34 | 226 | 3.2 | 9.7 | 0.00 | 0.00 | 0.00 | 58 | 1018.1 |
| 20260902193157 | 34 | 209 | 4.8 | 8.0 | 0.00 | 0.00 | 0.00 | 60 | 1018.0 |
| 20260902192655 | 34 | 214 | 6.4 | 11.3 | 0.00 | 0.00 | 0.00 | 61 | 1018.4 |
| 20260902192154 | 34 | 305 | 4.8 | 17.7 | 0.00 | 0.00 | 0.00 | 61 | 1018.2 |
| 20260902191649 | 34 | 262 | 12.9 | 14.5 | 0.00 | 0.00 | 0.00 | 58 | 1018.3 |
| 20260902191143 | 34 | 206 | 6.4 | 14.5 | 0.00 | 0.00 | 0.00 | 60 | 1018.4 |
| 20260902190639 | 34 | 245 | 8.0 | 12.9 | 0.00 | 0.00 | 0.00 | 58 | 1018.4 |
| 20260902190134 | 34 | 197 | 1.6 | 4.8 | 0.00 | 0.00 | 0.00 | 61 | 1018.5 |
| 20260902185630 | 34 | 193 | 1.6 | 8.0 | 0.00 | 0.00 | 0.00 | 62 | 1018.3 |
| 20260902185126 | 33 | 269 | 11.3 | 14.5 | 0.00 | 0.00 | 0.00 | 61 | 1018.6 |
| 20260902184620 | 33 | 249 | 3.2 | 11.3 | 0.00 | 0.00 | 0.00 | 62 | 1018.7 |
| 20260902184116 | 33 | 235 | 9.7 | 14.5 | 0.00 | 0.00 | 0.00 | 61 | 1018.6 |
| 20260902183612 | 34 | 206 | 3.2 | 8.0 | 0.00 | 0.00 | 0.00 | 61 | 1018.6 |
| 20260902183108 | 34 | 228 | 3.2 | 8.0 | 0.00 | 0.00 | 0.00 | 57 | 1018.3 |
| 20260902182604 | 34 | 199 | 4.8 | 11.3 | 0.00 | 0.00 | 0.00 | 60 | 1018.8 |
| 20260902182101 | 33 | 245 | 4.8 | 14.5 | 0.00 | 0.00 | 0.00 | 60 | 1018.5 |
| 20260902181556 | 33 | 200 | 3.2 | 14.5 | 0.00 | 0.00 | 0.00 | 61 | 1018.8 |
| 20260902181055 | 33 | 205 | 3.2 | 12.9 | 0.00 | 0.00 | 0.00 | 62 | 1018.8 |
| 20260902180550 | 33 | 198 | 4.8 | 8.0 | 0.00 | 0.00 | 0.00 | 62 | 1018.9 |
| 20260902180046 | 33 | 318 | 4.8 | 14.5 | 0.00 | 0.00 | 0.00 | 59 | 1018.8 |
| 20260902175545 | 33 | 232 | 3.2 | 11.3 | 0.00 | 0.00 | 0.00 | 59 | 1018.9 |
| 20260902175042 | 33 | 264 | 9.7 | 12.9 | 0.00 | 0.00 | 0.00 | 63 | 1018.9 |
| 20260902174538 | 33 | 236 | 3.2 | 11.3 | 0.00 | 0.00 | 0.00 | 62 | 1019.0 |
| 20260902174033 | 33 | 206 | 1.6 | 9.7 | 0.00 | 0.00 | 0.00 | 63 | 1019.0 |
| 20260902173532 | 33 | 204 | 3.2 | 14.5 | 0.00 | 0.00 | 0.00 | 62 | 1019.2 |
| 20260902173033 | 33 | 241 | 8.0 | 11.3 | 0.00 | 0.00 | 0.00 | 60 | 1019.2 |
| 20260902172527 | 33 | 261 | 6.4 | 14.5 | 0.00 | 0.00 | 0.00 | 61 | 1019.2 |
| 20260902172022 | 33 | 217 | 11.3 | 14.5 | 0.00 | 0.00 | 0.00 | 61 | 1019.3 |
| 20260902171518 | 33 | 217 | 6.4 | 12.9 | 0.00 | 0.00 | 0.00 | 63 | 1019.4 |
| 20260902171014 | 32 | 231 | 6.4 | 11.3 | 0.00 | 0.00 | 0.00 | 63 | 1019.2 |
| 20260902170508 | 32 | 274 | 12.9 | 16.1 | 0.00 | 0.00 | 0.00 | 63 | 1019.6 |
| 20260902170005 | 32 | 218 | 3.2 | 12.9 | 0.00 | 0.00 | 0.00 | 64 | 1019.3 |
| 20260902165503 | 32 | 220 | 8.0 | 12.9 | 0.00 | 0.00 | 0.00 | 64 | 1019.3 |
| 20260902164958 | 32 | 249 | 8.0 | 14.5 | 0.00 | 0.00 | 0.00 | 62 | 1019.5 |
| 20260902164453 | 32 | 191 | 4.8 | 9.7 | 0.00 | 0.00 | 0.00 | 64 | 1019.5 |
| 20260902163952 | 32 | 241 | 11.3 | 16.1 | 0.00 | 0.00 | 0.00 | 63 | 1019.5 |
| 20260902163448 | 32 | 222 | 3.2 | 11.3 | 0.00 | 0.00 | 0.00 | 65 | 1019.6 |
| 20260902162945 | 32 | 211 | 4.8 | 14.5 | 0.00 | 0.00 | 0.00 | 64 | 1019.6 |
| 20260902162440 | 32 | 212 | 3.2 | 14.5 | 0.00 | 0.00 | 0.00 | 66 | 1019.7 |
| 20260902161935 | 32 | 232 | 6.4 | 9.7 | 0.00 | 0.00 | 0.00 | 67 | 1019.6 |
| 20260902161430 | 32 | 238 | 8.0 | 16.1 | 0.00 | 0.00 | 0.00 | 66 | 1019.6 |
| 20260902160926 | 32 | 238 | 6.4 | 16.1 | 0.00 | 0.00 | 0.00 | 65 | 1019.6 |
| 20260902160421 | 32 | 244 | 4.8 | 11.3 | 0.00 | 0.00 | 0.00 | 68 | 1019.4 |
| 20260902155919 | 32 | 240 | 6.4 | 9.7 | 0.00 | 0.00 | 0.00 | 67 | 1019.5 |
| 20260902155415 | 31 | 261 | 4.8 | 11.3 | 0.00 | 0.00 | 0.00 | 68 | 1019.5 |
| 20260902154908 | 31 | 282 | 8.0 | 12.9 | 0.00 | 0.00 | 0.00 | 69 | 1019.3 |
| 20260902154404 | 31 | 230 | 3.2 | 9.7 | 0.00 | 0.00 | 0.00 | 70 | 1019.5 |
| 20260902153857 | 31 | 231 | 4.8 | 11.3 | 0.00 | 0.00 | 0.00 | 68 | 1019.5 |
| 20260902153356 | 31 | 179 | 4.8 | 9.7 | 0.00 | 0.00 | 0.00 | 70 | 1019.6 |
| 20260902152852 | 31 | 224 | 3.2 | 12.9 | 0.00 | 0.00 | 0.00 | 71 | 1019.7 |
| 20260902152348 | 31 | 201 | 1.6 | 9.7 | 0.00 | 0.00 | 0.00 | 71 | 1019.6 |
| 20260902151843 | 31 | 192 | 4.8 | 9.7 | 0.00 | 0.00 | 0.00 | 71 | 1019.5 |
| 20260902151338 | 31 | 201 | 1.6 | 9.7 | 0.00 | 0.00 | 0.00 | 72 | 1019.9 |
| 20260902150833 | 31 | 236 | 1.6 | 8.0 | 0.00 | 0.00 | 0.00 | 70 | 1019.7 |
| 20260902150329 | 30 | 199 | 4.8 | 9.7 | 0.00 | 0.00 | 0.00 | 73 | 1019.7 |
| 20260902145829 | 30 | 228 | 8.0 | 11.3 | 0.00 | 0.00 | 0.00 | 72 | 1019.6 |
| 20260902145324 | 30 | 215 | 4.8 | 8.0 | 0.00 | 0.00 | 0.00 | 72 | 1019.8 |
| 20260902144819 | 30 | 261 | 8.0 | 12.9 | 0.00 | 0.00 | 0.00 | 70 | 1019.8 |
| 20260902144316 | 30 | 230 | 3.2 | 11.3 | 0.00 | 0.00 | 0.00 | 72 | 1019.6 |
| 20260902143810 | 30 | 199 | 4.8 | 4.8 | 0.00 | 0.00 | 0.00 | 72 | 1019.8 |
| 20260902143305 | 30 | 236 | 4.8 | 9.7 | 0.00 | 0.00 | 0.00 | 73 | 1019.7 |
| 20260902142801 | 30 | 245 | 9.7 | 14.5 | 0.00 | 0.00 | 0.00 | 73 | 1019.7 |
| 20260902142257 | 30 | 192 | 3.2 | 8.0 | 0.00 | 0.00 | 0.00 | 75 | 1019.8 |
| 20260902141756 | 30 | 273 | 8.0 | 11.3 | 0.00 | 0.00 | 0.00 | 74 | 1019.6 |
| 20260902141252 | 29 | 190 | 1.6 | 8.0 | 0.00 | 0.00 | 0.00 | 76 | 1019.8 |
| 20260902140746 | 28 | 217 | 4.8 | 8.0 | 0.00 | 0.00 | 0.00 | 76 | 1019.6 |
| 20260902140242 | 28 | 244 | 6.4 | 11.3 | 0.00 | 0.00 | 0.00 | 78 | 1019.6 |
| 20260902135741 | 28 | 252 | 4.8 | 11.3 | 0.00 | 0.00 | 0.00 | 77 | 1019.7 |
| 20260902135237 | 28 | 264 | 3.2 | 11.3 | 0.00 | 0.00 | 0.00 | 78 | 1019.7 |
| 20260902134736 | 28 | 259 | 4.8 | 9.7 | 0.00 | 0.00 | 0.00 | 78 | 1019.9 |
| 20260902134232 | 28 | 219 | 4.8 | 8.0 | 0.00 | 0.00 | 0.00 | 80 | 1019.7 |
| 20260902133727 | 27 | 256 | 8.0 | 8.0 | 0.00 | 0.00 | 0.00 | 79 | 1019.7 |
| 20260902133226 | 27 | 240 | 4.8 | 9.7 | 0.00 | 0.00 | 0.00 | 80 | 1019.8 |
| 20260902132721 | 27 | 251 | 6.4 | 9.7 | 0.00 | 0.00 | 0.00 | 80 | 1019.7 |
| 20260902132217 | 27 | 269 | 4.8 | 8.0 | 0.00 | 0.00 | 0.00 | 81 | 1019.8 |
| 20260902131712 | 27 | 199 | 4.8 | 8.0 | 0.00 | 0.00 | 0.00 | 81 | 1019.6 |
| 20260902131209 | 26 | 200 | 1.6 | 4.8 | 0.00 | 0.00 | 0.00 | 82 | 1019.6 |
| 20260902130709 | 26 | 266 | 4.8 | 8.0 | 0.00 | 0.00 | 0.00 | 82 | 1019.8 |
| 20260902130204 | 26 | 247 | 1.6 | 4.8 | 0.00 | 0.00 | 0.00 | 83 | 1019.6 |
| 20260902125659 | 26 | 189 | 3.2 | 3.2 | 0.00 | 0.00 | 0.00 | 84 | 1019.8 |
| 20260902125155 | 25 | 188 | 1.6 | 4.8 | 0.00 | 0.00 | 0.00 | 86 | 1019.7 |
| 20260902124652 | 25 | 204 | 3.2 | 3.2 | 0.00 | 0.00 | 0.00 | 86 | 1019.7 |
| 20260902124152 | 25 | 190 | 0.0 | 3.2 | 0.00 | 0.00 | 0.00 | 88 | 1019.9 |
| 20260902123647 | 24 | 197 | 0.0 | 1.6 | 0.00 | 0.00 | 0.00 | 90 | 1019.6 |
| 20260902123142 | 24 | 194 | 0.0 | 1.6 | 0.00 | 0.00 | 0.00 | 91 | 1019.6 |
| 20260902122636 | 23 | 191 | 1.6 | 1.6 | 0.00 | 0.00 | 0.00 | 92 | 1019.6 |
| 20260902122133 | 23 | 198 | 1.6 | 1.6 | 0.00 | 0.00 | 0.00 | 93 | 1019.4 |
| 20260902121627 | 23 | 195 | 1.6 | 3.2 | 0.00 | 0.00 | 0.00 | 93 | 1019.6 |
| 20260902121121 | 23 | 187 | 0.0 | 1.6 | 0.00 | 0.00 | 0.00 | 94 | 1019.4 |
| 20260902120618 | 23 | 187 | 0.0 | 1.6 | 0.00 | 0.00 | 0.00 | 94 | 1019.5 |
| 20260902120114 | 23 | 196 | 1.6 | 1.6 | 0.00 | 0.00 | 0.00 | 94 | 1019.4 |
| 20260902115609 | 22 | 196 | 0.0 | 1.6 | 0.00 | 0.00 | 0.00 | 94 | 1019.4 |
| 20260902115105 | 22 | 189 | 0.0 | 1.6 | 0.00 | 0.00 | 0.00 | 94 | 1019.3 |
| 20260902114601 | 22 | 192 | 1.6 | 1.6 | 0.00 | 0.00 | 0.00 | 94 | 1019.2 |
| 20260902114100 | 22 | 197 | 1.6 | 1.6 | 0.00 | 0.00 | 0.00 | 94 | 1019.0 |
| 20260902113556 | 22 | 198 | 0.0 | 1.6 | 0.00 | 0.00 | 0.00 | 94 | 1018.9 |
| 20260902113051 | 22 | 187 | 0.0 | 1.6 | 0.00 | 0.00 | 0.00 | 94 | 1019.0 |
| 20260902112546 | 22 | 188 | 0.0 | 0.0 | 0.00 | 0.00 | 0.00 | 94 | 1019.1 |
| 20260902112043 | 22 | 190 | 0.0 | 0.0 | 0.00 | 0.00 | 0.00 | 94 | 1018.8 |
| 20260902111538 | 22 | 191 | 0.0 | 0.0 | 0.00 | 0.00 | 0.00 | 93 | 1019.0 |
| 20260902111034 | 22 | 193 | 0.0 | 1.6 | 0.00 | 0.00 | 0.00 | 93 | 1018.8 |
| 20260902110530 | 22 | 195 | 0.0 | 1.6 | 0.00 | 0.00 | 0.00 | 93 | 1018.7 |
| 20260902110025 | 22 | 190 | 0.0 | 1.6 | 0.00 | 0.00 | 0.00 | 93 | 1018.8 |
| 20260902105520 | 22 | 189 | 0.0 | 1.6 | 0.00 | 0.00 | 0.00 | 93 | 1018.9 |
| 20260902105020 | 22 | 186 | 0.0 | 0.0 | 0.00 | 0.00 | 0.00 | 92 | 1018.9 |
| 20260902104515 | 22 | 183 | 0.0 | 0.0 | 0.00 | 0.00 | 0.00 | 92 | 1018.8 |
| 20260902104010 | 22 | 190 | 0.0 | 1.6 | 0.00 | 0.00 | 0.00 | 92 | 1018.9 |
| 20260902103505 | 22 | 189 | 0.0 | 0.0 | 0.00 | 0.00 | 0.00 | 92 | 1018.8 |
| 20260902103000 | 22 | 190 | 0.0 | 0.0 | 0.00 | 0.00 | 0.00 | 92 | 1018.9 |
| 20260902102457 | 22 | 188 | 0.0 | 0.0 | 0.00 | 0.00 | 0.00 | 92 | 1019.0 |
| 20260902101954 | 22 | 188 | 0.0 | 0.0 | 0.00 | 0.00 | 0.00 | 92 | 1019.0 |
| 20260902101454 | 22 | 190 | 0.0 | 0.0 | 0.00 | 0.00 | 0.00 | 92 | 1018.7 |
| 20260902100952 | 22 | 184 | 1.6 | 1.6 | 0.00 | 0.00 | 0.00 | 92 | 1018.8 |
| 20260902100448 | 22 | 189 | 0.0 | 1.6 | 0.00 | 0.00 | 0.00 | 91 | 1018.7 |
| 20260902095942 | 22 | 178 | 1.6 | 1.6 | 0.00 | 0.00 | 0.00 | 91 | 1018.7 |
| 20260902095436 | 22 | 189 | 0.0 | 1.6 | 0.00 | 0.00 | 0.00 | 91 | 1018.7 |
| 20260902094936 | 22 | 198 | 0.0 | 1.6 | 0.00 | 0.00 | 0.00 | 91 | 1018.6 |
| 20260902094432 | 22 | 186 | 0.0 | 0.0 | 0.00 | 0.00 | 0.00 | 91 | 1018.7 |
| 20260902093926 | 22 | 186 | 0.0 | 1.6 | 0.00 | 0.00 | 0.00 | 91 | 1018.7 |
| 20260902093422 | 22 | 189 | 0.0 | 0.0 | 0.00 | 0.00 | 0.00 | 91 | 1018.5 |
| 20260902092920 | 22 | 186 | 0.0 | 0.0 | 0.00 | 0.00 | 0.00 | 91 | 1018.9 |
| 20260902092416 | 22 | 188 | 0.0 | 1.6 | 0.00 | 0.00 | 0.00 | 91 | 1018.8 |
| 20260902091911 | 22 | 189 | 0.0 | 0.0 | 0.00 | 0.00 | 0.00 | 91 | 1018.7 |
| 20260902091406 | 22 | 188 | 0.0 | 1.6 | 0.00 | 0.00 | 0.00 | 91 | 1018.6 |
| 20260902090903 | 22 | 188 | 0.0 | 0.0 | 0.00 | 0.00 | 0.00 | 91 | 1018.7 |
| 20260902090402 | 22 | 189 | 0.0 | 1.6 | 0.00 | 0.00 | 0.00 | 91 | 1018.4 |
| 20260902085901 | 22 | 189 | 0.0 | 1.6 | 0.00 | 0.00 | 0.00 | 91 | 1018.6 |
| 20260902085356 | 22 | 202 | 0.0 | 1.6 | 0.00 | 0.00 | 0.00 | 91 | 1018.6 |
| 20260902084852 | 22 | 189 | 0.0 | 0.0 | 0.00 | 0.00 | 0.00 | 91 | 1018.4 |
| 20260902084349 | 22 | 187 | 0.0 | 0.0 | 0.00 | 0.00 | 0.00 | 90 | 1018.5 |
| 20260902083844 | 22 | 189 | 0.0 | 0.0 | 0.00 | 0.00 | 0.00 | 90 | 1018.4 |
| 20260902083343 | 22 | 189 | 0.0 | 0.0 | 0.00 | 0.00 | 0.00 | 90 | 1018.3 |
| 20260902082838 | 22 | 190 | 0.0 | 0.0 | 0.00 | 0.00 | 0.00 | 90 | 1018.1 |
| 20260902082334 | 23 | 188 | 0.0 | 0.0 | 0.00 | 0.00 | 0.00 | 90 | 1018.2 |
| 20260902081831 | 23 | 187 | 0.0 | 0.0 | 0.00 | 0.00 | 0.00 | 90 | 1018.3 |
| 20260902081326 | 23 | 182 | 0.0 | 0.0 | 0.00 | 0.00 | 0.00 | 90 | 1018.1 |
| 20260902080821 | 23 | 186 | 0.0 | 0.0 | 0.00 | 0.00 | 0.00 | 90 | 1018.2 |
| 20260902080318 | 23 | 184 | 1.6 | 1.6 | 0.00 | 0.00 | 0.00 | 90 | 1018.3 |
| 20260902075817 | 23 | 184 | 0.0 | 1.6 | 0.00 | 0.00 | 0.00 | 90 | 1018.1 |
| 20260902075313 | 23 | 187 | 0.0 | 1.6 | 0.00 | 0.00 | 0.00 | 90 | 1018.3 |
| 20260902074808 | 23 | 188 | 0.0 | 1.6 | 0.00 | 0.00 | 0.00 | 89 | 1018.1 |
| 20260902074304 | 23 | 186 | 0.0 | 0.0 | 0.00 | 0.00 | 0.00 | 90 | 1018.0 |
| 20260902073758 | 23 | 187 | 0.0 | 1.6 | 0.00 | 0.00 | 0.00 | 90 | 1018.2 |
| 20260902073254 | 23 | 188 | 0.0 | 0.0 | 0.00 | 0.00 | 0.00 | 90 | 1018.0 |
| 20260902072750 | 23 | 186 | 0.0 | 1.6 | 0.00 | 0.00 | 0.00 | 90 | 1018.2 |
| 20260902072246 | 23 | 188 | 0.0 | 1.6 | 0.00 | 0.00 | 0.00 | 90 | 1018.1 |
| 20260902071742 | 23 | 187 | 0.0 | 1.6 | 0.00 | 0.00 | 0.00 | 89 | 1018.1 |
| 20260902071237 | 23 | 188 | 0.0 | 0.0 | 0.00 | 0.00 | 0.00 | 89 | 1018.2 |
| 20260902070734 | 23 | 188 | 0.0 | 0.0 | 0.00 | 0.00 | 0.00 | 89 | 1018.2 |
| 20260902070233 | 23 | 188 | 0.0 | 0.0 | 0.00 | 0.00 | 0.00 | 89 | 1018.3 |
| 20260902065732 | 23 | 187 | 0.0 | 1.6 | 0.00 | 0.00 | 0.00 | 89 | 1018.3 |
| 20260902065227 | 23 | 188 | 0.0 | 1.6 | 0.00 | 0.00 | 0.00 | 89 | 1018.1 |
| 20260902064723 | 23 | 187 | 0.0 | 0.0 | 0.00 | 0.00 | 0.00 | 89 | 1018.3 |
| 20260902064218 | 23 | 189 | 0.0 | 1.6 | 0.00 | 0.00 | 0.00 | 90 | 1018.1 |
| 20260902063714 | 23 | 190 | 0.0 | 0.0 | 0.00 | 0.00 | 0.00 | 90 | 1018.1 |
| 20260902063213 | 23 | 188 | 0.0 | 1.6 | 0.00 | 0.00 | 0.00 | 90 | 1018.1 |
| 20260902062708 | 23 | 188 | 0.0 | 1.6 | 0.00 | 0.00 | 0.00 | 90 | 1018.2 |
| 20260902062203 | 23 | 190 | 0.0 | 1.6 | 0.00 | 0.00 | 0.00 | 90 | 1018.1 |
| 20260902061702 | 23 | 176 | 0.0 | 1.6 | 0.00 | 0.00 | 0.00 | 89 | 1018.3 |
| 20260902061157 | 23 | 189 | 0.0 | 1.6 | 0.00 | 0.00 | 0.00 | 89 | 1018.0 |
| 20260902060654 | 23 | 189 | 0.0 | 0.0 | 0.00 | 0.00 | 0.00 | 89 | 1018.3 |
| 20260902060150 | 23 | 189 | 0.0 | 0.0 | 0.00 | 0.00 | 0.00 | 89 | 1018.2 |
| 20260902055645 | 23 | 189 | 0.0 | 1.6 | 0.00 | 0.00 | 0.00 | 89 | 1018.2 |
| 20260902055141 | 23 | 189 | 0.0 | 1.6 | 0.00 | 0.00 | 0.00 | 89 | 1018.2 |
| 20260902054636 | 23 | 189 | 0.0 | 0.0 | 0.00 | 0.00 | 0.00 | 89 | 1018.5 |
| 20260902054131 | 23 | 188 | 0.0 | 0.0 | 0.00 | 0.00 | 0.00 | 89 | 1018.2 |
| 20260902053627 | 23 | 188 | 0.0 | 0.0 | 0.00 | 0.00 | 0.00 | 89 | 1018.3 |
| 20260902053121 | 24 | 188 | 0.0 | 1.6 | 0.00 | 0.00 | 0.00 | 88 | 1018.3 |
| 20260902052620 | 24 | 188 | 0.0 | 0.0 | 0.00 | 0.00 | 0.00 | 88 | 1018.6 |
| 20260902052111 | 24 | 187 | 0.0 | 1.6 | 0.00 | 0.00 | 0.00 | 88 | 1018.2 |
| 20260902051610 | 24 | 188 | 0.0 | 0.0 | 0.00 | 0.00 | 0.00 | 88 | 1018.2 |
| 20260902051109 | 24 | 187 | 0.0 | 1.6 | 0.00 | 0.00 | 0.00 | 88 | 1018.5 |
| 20260902050604 | 24 | 180 | 0.0 | 1.6 | 0.00 | 0.00 | 0.00 | 88 | 1018.1 |
| 20260902050059 | 24 | 188 | 0.0 | 1.6 | 0.00 | 0.00 | 0.00 | 87 | 1018.2 |
| 20260902045555 | 24 | 185 | 0.0 | 1.6 | 0.00 | 0.00 | 0.00 | 87 | 1018.1 |
| 20260902045051 | 24 | 186 | 0.0 | 1.6 | 0.00 | 0.00 | 0.00 | 87 | 1018.2 |
| 20260902044550 | 24 | 187 | 0.0 | 1.6 | 0.00 | 0.00 | 0.00 | 86 | 1018.3 |
| 20260902044046 | 25 | 188 | 0.0 | 0.0 | 0.00 | 0.00 | 0.00 | 86 | 1018.2 |
| 20260902043542 | 25 | 192 | 0.0 | 1.6 | 0.00 | 0.00 | 0.00 | 86 | 1018.2 |
| 20260902043037 | 25 | 187 | 0.0 | 1.6 | 0.00 | 0.00 | 0.00 | 86 | 1018.3 |
| 20260902042536 | 25 | 188 | 0.0 | 0.0 | 0.00 | 0.00 | 0.00 | 86 | 1018.2 |
| 20260902042031 | 25 | 187 | 0.0 | 0.0 | 0.00 | 0.00 | 0.00 | 85 | 1018.3 |
| 20260902041526 | 25 | 188 | 0.0 | 1.6 | 0.00 | 0.00 | 0.00 | 85 | 1018.3 |
| 20260902041020 | 25 | 188 | 0.0 | 0.0 | 0.00 | 0.00 | 0.00 | 85 | 1018.3 |
| 20260902040515 | 25 | 188 | 0.0 | 1.6 | 0.00 | 0.00 | 0.00 | 84 | 1018.2 |
| 20260902040014 | 25 | 188 | 0.0 | 1.6 | 0.00 | 0.00 | 0.00 | 84 | 1018.2 |
| 20260902035508 | 25 | 187 | 0.0 | 1.6 | 0.00 | 0.00 | 0.00 | 84 | 1018.3 |
| 20260902035004 | 25 | 187 | 1.6 | 1.6 | 0.00 | 0.00 | 0.00 | 84 | 1018.4 |
| 20260902034503 | 25 | 189 | 0.0 | 1.6 | 0.00 | 0.00 | 0.00 | 84 | 1018.4 |
| 20260902033957 | 25 | 200 | 1.6 | 1.6 | 0.00 | 0.00 | 0.00 | 84 | 1018.4 |
| 20260902033456 | 25 | 194 | 0.0 | 1.6 | 0.00 | 0.00 | 0.00 | 84 | 1018.1 |
| 20260902032955 | 25 | 196 | 1.6 | 1.6 | 0.00 | 0.00 | 0.00 | 85 | 1018.3 |
| 20260902032450 | 25 | 188 | 0.0 | 1.6 | 0.00 | 0.00 | 0.00 | 85 | 1018.4 |
| 20260902031944 | 25 | 190 | 0.0 | 1.6 | 0.00 | 0.00 | 0.00 | 85 | 1018.3 |
| 20260902031440 | 25 | 188 | 0.0 | 0.0 | 0.00 | 0.00 | 0.00 | 85 | 1018.4 |
| 20260902030937 | 25 | 187 | 0.0 | 0.0 | 0.00 | 0.00 | 0.00 | 84 | 1018.1 |
| 20260902030436 | 25 | 187 | 0.0 | 0.0 | 0.00 | 0.00 | 0.00 | 84 | 1018.2 |
| 20260902025934 | 25 | 188 | 0.0 | 0.0 | 0.00 | 0.00 | 0.00 | 83 | 1018.2 |
| 20260902025431 | 25 | 188 | 0.0 | 0.0 | 0.00 | 0.00 | 0.00 | 83 | 1018.3 |
| 20260902024925 | 25 | 185 | 0.0 | 0.0 | 0.00 | 0.00 | 0.00 | 83 | 1018.3 |
| 20260902024421 | 25 | 186 | 0.0 | 0.0 | 0.00 | 0.00 | 0.00 | 83 | 1018.3 |
| 20260902023916 | 25 | 186 | 0.0 | 0.0 | 0.00 | 0.00 | 0.00 | 83 | 1018.3 |
| 20260902023412 | 25 | 187 | 0.0 | 0.0 | 0.00 | 0.00 | 0.00 | 82 | 1018.2 |
| 20260902022911 | 25 | 186 | 0.0 | 0.0 | 0.00 | 0.00 | 0.00 | 82 | 1018.2 |
| 20260902022406 | 25 | 187 | 0.0 | 0.0 | 0.00 | 0.00 | 0.00 | 82 | 1018.4 |
| 20260902021902 | 25 | 186 | 0.0 | 1.6 | 0.00 | 0.00 | 0.00 | 82 | 1018.3 |
| 20260902021402 | 25 | 186 | 0.0 | 0.0 | 0.00 | 0.00 | 0.00 | 82 | 1018.1 |
| 20260902020857 | 25 | 187 | 0.0 | 0.0 | 0.00 | 0.00 | 0.00 | 82 | 1018.2 |
| 20260902020354 | 26 | 185 | 0.0 | 0.0 | 0.00 | 0.00 | 0.00 | 82 | 1018.3 |
| 20260902015849 | 26 | 184 | 0.0 | 0.0 | 0.00 | 0.00 | 0.00 | 81 | 1018.1 |
| 20260902015344 | 26 | 186 | 0.0 | 0.0 | 0.00 | 0.00 | 0.00 | 80 | 1018.3 |
| 20260902014840 | 26 | 186 | 0.0 | 0.0 | 0.00 | 0.00 | 0.00 | 80 | 1018.0 |
| 20260902014336 | 26 | 186 | 0.0 | 0.0 | 0.00 | 0.00 | 0.00 | 80 | 1018.3 |
| 20260902013835 | 26 | 184 | 0.0 | 1.6 | 0.00 | 0.00 | 0.00 | 80 | 1018.3 |
| 20260902013331 | 26 | 190 | 0.0 | 0.0 | 0.00 | 0.00 | 0.00 | 81 | 1018.1 |
| 20260902012826 | 26 | 186 | 0.0 | 0.0 | 0.00 | 0.00 | 0.00 | 81 | 1017.9 |
| 20260902012322 | 26 | 186 | 0.0 | 0.0 | 0.00 | 0.00 | 0.00 | 81 | 1017.9 |
| 20260902011817 | 26 | 189 | 0.0 | 0.0 | 0.00 | 0.00 | 0.00 | 81 | 1018.0 |
| 20260902011312 | 26 | 186 | 0.0 | 0.0 | 0.00 | 0.00 | 0.00 | 80 | 1017.8 |
| 20260902010811 | 26 | 186 | 0.0 | 0.0 | 0.00 | 0.00 | 0.00 | 80 | 1018.1 |
| 20260902010306 | 26 | 191 | 0.0 | 0.0 | 0.00 | 0.00 | 0.00 | 80 | 1018.0 |
| 20260902005805 | 27 | 190 | 0.0 | 0.0 | 0.00 | 0.00 | 0.00 | 80 | 1017.6 |
| 20260902005300 | 27 | 189 | 0.0 | 0.0 | 0.00 | 0.00 | 0.00 | 79 | 1017.9 |
| 20260902004755 | 27 | 186 | 0.0 | 0.0 | 0.00 | 0.00 | 0.00 | 78 | 1017.6 |
| 20260902004250 | 27 | 185 | 0.0 | 0.0 | 0.00 | 0.00 | 0.00 | 78 | 1017.7 |
| 20260902003745 | 27 | 189 | 0.0 | 0.0 | 0.00 | 0.00 | 0.00 | 77 | 1017.5 |
| 20260902003240 | 28 | 188 | 0.0 | 1.6 | 0.00 | 0.00 | 0.00 | 75 | 1017.7 |
| 20260902002736 | 28 | 189 | 0.0 | 1.6 | 0.00 | 0.00 | 0.00 | 74 | 1017.5 |
| 20260902002230 | 28 | 186 | 0.0 | 1.6 | 0.00 | 0.00 | 0.00 | 74 | 1017.7 |
| 20260902001726 | 28 | 186 | 0.0 | 1.6 | 0.00 | 0.00 | 0.00 | 73 | 1017.6 |
| 20260902001226 | 29 | 183 | 0.0 | 0.0 | 0.00 | 0.00 | 0.00 | 72 | 1017.9 |
| 20260902000720 | 29 | 186 | 0.0 | 1.6 | 0.00 | 0.00 | 0.00 | 71 | 1017.8 |
| 20260902000216 | 30 | 187 | 0.0 | 1.6 | 0.00 | 0.00 | 0.00 | 70 | 1018.1 |
| 20260901235715 | 30 | 188 | 0.0 | 1.6 | 0.00 | 0.00 | 0.00 | 69 | 1017.8 |
| 20260901235210 | 30 | 188 | 1.6 | 1.6 | 0.00 | 0.00 | 0.00 | 68 | 1017.8 |
| 20260901234710 | 31 | 186 | 1.6 | 3.2 | 0.00 | 0.00 | 0.00 | 67 | 1017.8 |
| 20260901234205 | 31 | 189 | 0.0 | 1.6 | 0.00 | 0.00 | 0.00 | 67 | 1017.9 |
| 20260901233704 | 32 | 189 | 0.0 | 1.6 | 0.00 | 0.00 | 0.00 | 67 | 1017.9 |
| 20260901233201 | 32 | 188 | 0.0 | 1.6 | 0.00 | 0.00 | 0.00 | 67 | 1018.1 |
| 20260901232655 | 32 | 189 | 0.0 | 1.6 | 0.00 | 0.00 | 0.00 | 66 | 1018.2 |
| 20260901232150 | 33 | 189 | 0.0 | 1.6 | 0.00 | 0.00 | 0.00 | 66 | 1018.1 |
| 20260901231647 | 33 | 189 | 0.0 | 1.6 | 0.00 | 0.00 | 0.00 | 66 | 1018.1 |
| 20260901231143 | 33 | 193 | 0.0 | 1.6 | 0.00 | 0.00 | 0.00 | 64 | 1018.1 |
| 20260901230639 | 33 | 194 | 0.0 | 1.6 | 0.00 | 0.00 | 0.00 | 63 | 1018.2 |
| 20260901230138 | 33 | 194 | 0.0 | 1.6 | 0.00 | 0.00 | 0.00 | 62 | 1018.2 |
| 20260901225634 | 33 | 193 | 1.6 | 1.6 | 0.00 | 0.00 | 0.00 | 63 | 1018.0 |
| 20260901225134 | 33 | 190 | 0.0 | 1.6 | 0.00 | 0.00 | 0.00 | 63 | 1018.1 |
| 20260901224630 | 33 | 238 | 4.8 | 4.8 | 0.00 | 0.00 | 0.00 | 61 | 1018.1 |
| 20260901224126 | 33 | 225 | 1.6 | 3.2 | 0.00 | 0.00 | 0.00 | 61 | 1018.1 |
| 20260901223621 | 33 | 245 | 4.8 | 4.8 | 0.00 | 0.00 | 0.00 | 62 | 1018.2 |
| 20260901223116 | 33 | 223 | 1.6 | 8.0 | 0.00 | 0.00 | 0.00 | 60 | 1018.0 |
| 20260901222612 | 33 | 257 | 3.2 | 8.0 | 0.00 | 0.00 | 0.00 | 62 | 1018.2 |
| 20260901222108 | 33 | 217 | 1.6 | 4.8 | 0.00 | 0.00 | 0.00 | 61 | 1018.1 |
| 20260901221604 | 33 | 204 | 1.6 | 8.0 | 0.00 | 0.00 | 0.00 | 61 | 1018.1 |
| 20260901221059 | 33 | 221 | 3.2 | 9.7 | 0.00 | 0.00 | 0.00 | 59 | 1018.2 |
| 20260901220558 | 33 | 210 | 1.6 | 4.8 | 0.00 | 0.00 | 0.00 | 60 | 1018.2 |
| 20260901220058 | 33 | 266 | 4.8 | 9.7 | 0.00 | 0.00 | 0.00 | 60 | 1017.9 |
| 20260901215556 | 34 | 209 | 1.6 | 8.0 | 0.00 | 0.00 | 0.00 | 61 | 1018.1 |
| 20260901215050 | 34 | 237 | 1.6 | 4.8 | 0.00 | 0.00 | 0.00 | 58 | 1018.0 |
| 20260901214549 | 34 | 195 | 1.6 | 3.2 | 0.00 | 0.00 | 0.00 | 59 | 1018.1 |
| 20260901214043 | 34 | 194 | 3.2 | 3.2 | 0.00 | 0.00 | 0.00 | 59 | 1018.0 |
| 20260901213537 | 34 | 210 | 6.4 | 11.3 | 0.00 | 0.00 | 0.00 | 58 | 1018.0 |
| 20260901213032 | 33 | 185 | 1.6 | 3.2 | 0.00 | 0.00 | 0.00 | 61 | 1018.1 |
| 20260901212532 | 34 | 227 | 3.2 | 9.7 | 0.00 | 0.00 | 0.00 | 59 | 1018.0 |